createdAt,value
2023-05-25T00:06:29.368Z,8
2023-05-25T00:16:31.680Z,8
2023-05-25T00:26:33.501Z,7.6
2023-05-25T00:36:35.786Z,7.3
2023-05-25T00:46:37.509Z,7.5
2023-05-25T00:56:39.112Z,7.3
2023-05-25T01:06:41.142Z,7.2
2023-05-25T01:16:43.336Z,7.1
2023-05-25T01:26:45.850Z,6.9
2023-05-25T01:36:47.817Z,6.8
2023-05-25T01:46:49.920Z,6.6
2023-05-25T01:56:51.572Z,6.6
2023-05-25T02:06:53.952Z,6.4
2023-05-25T02:16:56.084Z,6.7
2023-05-25T02:26:57.762Z,6.7
2023-05-25T02:36:59.820Z,6.6
2023-05-25T02:47:02.418Z,6.5
2023-05-25T02:57:04.824Z,6.4
2023-05-25T03:17:08.766Z,6.2
2023-05-25T03:27:11.073Z,6.4
2023-05-25T03:37:13.220Z,6.4
2023-05-25T03:47:14.954Z,6.1
2023-05-25T03:57:17.130Z,6
2023-05-25T04:17:21.162Z,6.4
2023-05-25T04:37:25.245Z,6.8
2023-05-25T04:57:29.016Z,8.4
2023-05-25T05:17:32.801Z,9.9
2023-05-25T05:27:34.687Z,10.5
2023-05-25T05:37:36.716Z,10.8
2023-05-25T05:57:41.356Z,11.5
2023-05-25T06:07:43.330Z,11.6
2023-05-25T06:17:45.502Z,12
2023-05-25T06:37:49.709Z,11.6
2023-05-25T06:47:52.303Z,13.7
2023-05-25T06:57:54.150Z,14.2
2023-05-25T07:07:56.294Z,12.1
2023-05-25T07:17:58.851Z,11.9
2023-05-25T07:38:02.946Z,11.5
2023-05-25T07:48:05.514Z,11.1
2023-05-25T07:58:07.715Z,11.1
2023-05-25T08:08:10.220Z,11.5
2023-05-25T08:18:12.793Z,11.4
2023-05-25T08:28:14.824Z,11.8
2023-05-25T08:38:16.529Z,11.8
2023-05-25T08:48:31.679Z,11.7
2023-05-25T08:58:20.728Z,11.6
2023-05-25T09:08:23.132Z,12.3
2023-05-25T09:28:27.752Z,11.9
2023-05-25T09:38:29.110Z,12.1
2023-05-25T09:48:31.622Z,11.8
2023-05-25T09:58:34.029Z,12.7
2023-05-25T10:08:36.081Z,12.8
2023-05-25T10:18:37.752Z,13.7
2023-05-25T10:28:39.448Z,13.6
2023-05-25T10:38:41.595Z,13.2
2023-05-25T10:58:45.927Z,13.4
2023-05-25T11:08:48.217Z,13.8
2023-05-25T11:18:50.782Z,14.3
2023-05-25T11:28:52.970Z,13.7
2023-05-25T11:48:57.504Z,15.3
2023-05-25T11:58:59.834Z,14.3
2023-05-25T12:19:04.533Z,14.8
2023-05-25T12:29:06.981Z,17.5
2023-05-25T12:49:11.186Z,17.2
2023-05-25T12:59:12.826Z,17.3
2023-05-25T13:09:14.781Z,16.4
2023-05-25T13:19:17.352Z,17.7
2023-05-25T13:29:19.103Z,15.9
2023-05-25T13:39:21.455Z,17
2023-05-25T13:49:24.548Z,18.4
2023-05-25T14:29:30.495Z,17.7
2023-05-25T15:19:40.885Z,17
2023-05-25T15:29:43.012Z,16.5
2023-05-25T15:49:46.555Z,17.4
2023-05-25T16:19:53.510Z,16.2
2023-05-25T16:39:57.869Z,17
2023-05-25T16:49:59.723Z,17.2
2023-05-25T17:00:01.572Z,16.4
2023-05-25T17:10:03.221Z,16.2
2023-05-25T17:20:05.047Z,16.5
2023-05-25T17:30:07.211Z,16.5
2023-05-25T17:40:09.300Z,16.4
2023-05-25T18:20:17.538Z,16.1
2023-05-25T18:40:22.396Z,15.9
2023-05-25T18:50:24.617Z,15.8
2023-05-25T19:00:27.177Z,15.4
2023-05-25T19:10:29.558Z,15.2
2023-05-25T19:20:31.692Z,14.8
2023-05-25T19:30:34.020Z,14.6
2023-05-25T19:40:36.524Z,14.3
2023-05-25T20:00:41.214Z,13.7
2023-05-25T20:10:43.191Z,13.7
2023-05-25T20:20:45.032Z,13.7
2023-05-25T20:40:49.355Z,13.1
2023-05-25T20:50:51.815Z,12.8
2023-05-25T21:00:54.284Z,12.4
2023-05-25T21:10:56.757Z,12.3
2023-05-25T21:20:59.032Z,12
2023-05-25T21:31:01.323Z,11.7
2023-05-25T21:41:03.035Z,11.5
2023-05-25T21:51:04.780Z,11.2
2023-05-25T22:01:06.803Z,10.9
2023-05-25T22:11:08.566Z,10.7
2023-05-25T22:21:10.528Z,10.4
2023-05-25T22:31:12.697Z,10.4
2023-05-25T22:41:14.582Z,10.2
2023-05-25T22:51:16.251Z,10
2023-05-25T23:01:18.233Z,9.9
2023-05-25T23:11:20.298Z,9.6
2023-05-25T23:21:29.915Z,9.4
2023-05-25T23:41:34.179Z,8.9
